Norasia Valparaiso — A8CJ9 — position and weather

sailwx.info

Track history (hours):
 
Tides and Currents Weather Stations Pressure Air Temp Water Temp Dewpoint Dewpoint Depression Visibility Wind Speed Wind Dir Waves Ship Positions

Norasia Valparaiso

Last reported at 2016-May-13 00:20 UTC. Time now 2016-Jun-28 11:38 UTC.
Position N 01°17' E 103°55'.
Warning: this ship's position is 46 days out of date.

Length 286.3 m; beam 32.2 m; draft 13.2 m.

Type: Cargo ship. MMSI: 636090659.

Date/timePositionNaut miles runAvg speedWind from/ knotsBaromVisibWave heightAir tempDewpointWater temp
2016-May-13 00:20N 01°17' E 103°55'0 0.0
2016-May-12 23:26N 01°17' E 103°55'0 0.0
2016-May-12 22:32N 01°17' E 103°55'0 0.0
2016-May-12 21:32N 01°17' E 103°55'0 0.0
2016-May-12 20:32N 01°17' E 103°55'0 0.1
2016-May-12 19:11N 01°17' E 103°55'0 0.1
2016-May-12 16:32N 01°17' E 103°54'0 0.0
2016-May-12 15:26N 01°17' E 103°54'0 0.0
2016-May-12 13:32N 01°17' E 103°54'0 0.0
2016-May-12 12:32N 01°17' E 103°54'0 0.1
2016-May-12 11:14N 01°17' E 103°54'0 0.0
2016-May-12 05:32N 01°17' E 103°54'0 0.0
2016-May-12 04:29N 01°17' E 103°54'0 0.1
2016-May-12 03:20N 01°17' E 103°54'0 0.1
2016-May-12 02:14N 01°17' E 103°55'0 0.0
2016-May-12 00:29N 01°17' E 103°55'0 0.0
2016-May-11 23:17N 01°17' E 103°55'0 0.1
2016-May-11 22:17N 01°17' E 103°55'0 0.0
2016-May-11 21:23N 01°17' E 103°55'0 0.0
2016-May-11 20:32N 01°17' E 103°55'0 0.1
2016-May-11 19:32N 01°17' E 103°55'0 0.1
2016-May-11 17:26N 01°17' E 103°54'0 0.1
2016-May-11 16:20N 01°17' E 103°54'0 0.0
2016-May-11 15:32N 01°17' E 103°54'1 0.9
2016-May-11 14:33N 01°16' E 103°55'5 4.9
2016-May-11 13:33N 01°16' E 103°60'  
2016-May-05 17:11N 01°16' E 104°12'1016.6
2016-May-05 16:33N 01°15' E 104°02'1313.2
2016-May-05 15:33N 01°12' E 103°49'8 7.9
2016-May-05 14:33N 01°17' E 103°44'1 0.8
2016-May-05 13:28N 01°18' E 103°43'0 0.0
2016-May-05 12:19N 01°18' E 103°43'0 0.0
2016-May-05 11:22N 01°18' E 103°43'0 0.0
2016-May-05 10:28N 01°18' E 103°43'0 0.0
2016-May-05 09:34N 01°18' E 103°43'0 0.0
2016-May-05 08:34N 01°18' E 103°43'0 0.0
2016-May-05 07:19N 01°18' E 103°43'0 0.0
2016-May-05 06:34N 01°18' E 103°43'0 0.0
2016-May-05 05:34N 01°18' E 103°43'0 0.0
2016-May-05 04:28N 01°18' E 103°43'0 0.0
2016-May-05 03:28N 01°18' E 103°43'0 0.0
2016-May-05 02:25N 01°18' E 103°43'0 0.1
2016-May-05 01:33N 01°18' E 103°43'6 6.1
2016-May-05 00:34N 01°14' E 103°47'1110.4
2016-May-04 23:33N 01°15' E 103°58'1010.3
2016-May-04 22:32N 01°17' E 104°08'  
Track history (hours):
 
Tides and Currents Weather Stations Pressure Air Temp Water Temp Dewpoint Dewpoint Depression Visibility Wind Speed Wind Dir Waves Ship Positions

Norasia Valparaiso

Last reported at 2016-May-13 00:20 UTC. Time now 2016-Jun-28 11:38 UTC.
Position N 01°17' E 103°55'.
Warning: this ship's position is 46 days out of date.

Length 286.3 m; beam 32.2 m; draft 13.2 m.

Type: Cargo ship. MMSI: 636090659.

Date/timePositionNaut miles runAvg speedWind from/ knotsBaromVisibWave heightAir tempDewpointWater temp
2016-May-13 00:20N 01°17' E 103°55'0 0.0
2016-May-12 23:26N 01°17' E 103°55'0 0.0
2016-May-12 22:32N 01°17' E 103°55'0 0.0
2016-May-12 21:32N 01°17' E 103°55'0 0.0
2016-May-12 20:32N 01°17' E 103°55'0 0.1
2016-May-12 19:11N 01°17' E 103°55'0 0.1
2016-May-12 16:32N 01°17' E 103°54'0 0.0
2016-May-12 15:26N 01°17' E 103°54'0 0.0
2016-May-12 13:32N 01°17' E 103°54'0 0.0
2016-May-12 12:32N 01°17' E 103°54'0 0.1
2016-May-12 11:14N 01°17' E 103°54'0 0.0
2016-May-12 05:32N 01°17' E 103°54'0 0.0
2016-May-12 04:29N 01°17' E 103°54'0 0.1
2016-May-12 03:20N 01°17' E 103°54'0 0.1
2016-May-12 02:14N 01°17' E 103°55'0 0.0
2016-May-12 00:29N 01°17' E 103°55'0 0.0
2016-May-11 23:17N 01°17' E 103°55'0 0.1
2016-May-11 22:17N 01°17' E 103°55'0 0.0
2016-May-11 21:23N 01°17' E 103°55'0 0.0
2016-May-11 20:32N 01°17' E 103°55'0 0.1
2016-May-11 19:32N 01°17' E 103°55'0 0.1
2016-May-11 17:26N 01°17' E 103°54'0 0.1
2016-May-11 16:20N 01°17' E 103°54'0 0.0
2016-May-11 15:32N 01°17' E 103°54'1 0.9
2016-May-11 14:33N 01°16' E 103°55'5 4.9
2016-May-11 13:33N 01°16' E 103°60'  
2016-May-05 17:11N 01°16' E 104°12'1016.6
2016-May-05 16:33N 01°15' E 104°02'1313.2
2016-May-05 15:33N 01°12' E 103°49'8 7.9
2016-May-05 14:33N 01°17' E 103°44'1 0.8
2016-May-05 13:28N 01°18' E 103°43'0 0.0
2016-May-05 12:19N 01°18' E 103°43'0 0.0
2016-May-05 11:22N 01°18' E 103°43'0 0.0
2016-May-05 10:28N 01°18' E 103°43'0 0.0
2016-May-05 09:34N 01°18' E 103°43'0 0.0
2016-May-05 08:34N 01°18' E 103°43'0 0.0
2016-May-05 07:19N 01°18' E 103°43'0 0.0
2016-May-05 06:34N 01°18' E 103°43'0 0.0
2016-May-05 05:34N 01°18' E 103°43'0 0.0
2016-May-05 04:28N 01°18' E 103°43'0 0.0
2016-May-05 03:28N 01°18' E 103°43'0 0.0
2016-May-05 02:25N 01°18' E 103°43'0 0.1
2016-May-05 01:33N 01°18' E 103°43'6 6.1
2016-May-05 00:34N 01°14' E 103°47'1110.4
2016-May-04 23:33N 01°15' E 103°58'1010.3
2016-May-04 22:32N 01°17' E 104°08'  

Dump ship's entire track history